Hollis, OK

2:17 AM CDT on September 03, 2014 (GMT -0500)
Corinth | Change Station
CLOSE
Current Station
Personal Weather Station
Location: Eldorado, OK
Elevation: 1476 ft
Nearby Weather Stations

Elev 1476 ft 34.50 °N, 99.76 °W | Updated 10 seconds ago

Clear
Clear
79.2 °F
Feels Like 81 °F
N
8.3
Wind Variable Wind from SE
Gusts 8.3 mph

Today
High -- | Low -- °F
--% Chance of Precip.
Yesterday
High -- | Low -- °F
Precip. -- in
7:14 AM 8:03 PM
First Quarter, 59% visible
Pressure 29.81 in
Visibility 10.0 miles
Clouds Clear
Heat Index 81 °F
Dew Point 66 °F
Humidity 63%
Rainfall 0.00 in
Snow Depth Not available.
UV 0 out of 12
Pollen 11.20 out of 12
Air Quality Not available.
Flu Activity Not available.
METAR KCDS 030653Z AUTO 17007KT 10SM CLR 27/17 A2991 RMK AO2 SLP095 T02670172

More Conditions Fewer Conditions

Pressure 29.81 in
Visibility 10.0 miles
Clouds Clear
Heat Index 81 °F
Dew Point 66 °F
Humidity 63%
Rainfall 0.00 in
Snow Depth Not available.
UV 0 out of 12
Pollen 11.20 out of 12
Air Quality Not available.
Flu Activity Not available.
METAR KCDS 030653Z AUTO 17007KT 10SM CLR 27/17 A2991 RMK AO2 SLP095 T02670172

More Conditions Fewer Conditions

10-Day Weather Forecast

Almanac

Astronomy

Sep. 03, 2014 Rise Set
Actual Time 7:14 AM CDT 8:03 PM CDT
Civil Twilight 6:48 AM CDT 8:28 PM CDT
Nautical Twilight 6:18 AM CDT 8:59 PM CDT
Astronomical Twilight 5:46 AM CDT 9:30 PM CDT
Moon 3:39 PM CDT 1:17 AM CDT
Length of Visible Light 13h 40m
Length of Day
12h 49m
Tomorrow will be 2m 5s shorter.
First Quarter, 59% of the Moon is Illuminated
Today
First Quarter
Sep 8
Full
Sep 15
Last Quarter
Sep 24
New
Oct 1
First Quarter

Today's Extremes

State Highs State Lows

Community

WunderPhotos

Upload Photos

1,749,888 photos uploaded!

Nearby

Snow Depth

Station Depth Elevation
No new snow has been reported.

Earthquake Activity

City Distance Mag. Time & Date
Helena, Oklahoma 152 miles 3.2 3:05 AM CDT
2014-09-02
Enid, Oklahoma 171 miles 3.4 11:57 AM CDT
2014-08-31
Enid, Oklahoma 170 miles 3.7 2:20 AM CDT
2014-08-31
Minimum magnitude displayed is 2.5.

Coastal Water Temperatures

Place Temperature
No Stations Reporting

Nearby Weather Stations